Pagina principale
METAR-TAF:

METAR-TAF

Aeroporti :

Aeroporto di Stoccolma-Arlanda

Stoccolma-Arlanda, Svezia

latitudine: 59-39N, longitudine: 017-57E, altezza: 38 m

Osservazione

Il bollettino è stato emesso 33 minuti fa, alle 18:20 UTC
Vento 8 kt da sud-est
Temperature 19°C
Umidità 34%
Pressione 1028 hPa
Visibilità 10 km o più
nessuna nube inferiore a 1500 m e nessun cumulonembo

METAR: ESSA 251820Z 13008KT CAVOK 19/03 Q1028 NOSIG

Ora: 20:53 (18:53 UTC)

Previsione

Il bollettino è stato emesso 1 ora e 23 minuti fa, alle 17:30 UTC
Previsione valida dal 25 alle 18 UTC al 26 alle 18 UTC
Vento 8 kt da sud-est
Visibilità 10 km o più
nessuna nube inferiore a 1500 m e nessun cumulonembo

TAF: ESSA 251730Z 2518/2618 13008KT CAVOK

Osservazioni e previsioni meteorologiche di più di 4000 aeroporti (messaggi METAR e TAF).

Le stazioni disponibili sono rappresentate dai dischi gialli e rossi sulla carta.

Puntare il mouse per vedere il nome della stazione.

Clicca sopra per visualizzare le osservazioni e previsioni meteorologiche.

Per cambiare la mappa : fare clic sui pulsanti verdi con una croce nera per ingrandire, il pulsante verde con un trattino per diminuire, o sulla freccia verde per le mappe adiacenti.


METAR-TAF: